sensor_id;sensor_type;location;lat;lon;timestamp;P1;durP1;ratioP1;P2;durP2;ratioP2
10059;SDS011;5069;49.306;8.636;2023-07-29T00:02:10;3.43;;;2.10;;
10059;SDS011;5069;49.306;8.636;2023-07-29T00:05:11;2.40;;;1.73;;
10059;SDS011;5069;49.306;8.636;2023-07-29T00:08:13;4.33;;;1.80;;
10059;SDS011;5069;49.306;8.636;2023-07-29T00:11:14;2.83;;;1.70;;
10059;SDS011;5069;49.306;8.636;2023-07-29T00:14:16;2.20;;;1.83;;
10059;SDS011;5069;49.306;8.636;2023-07-29T00:17:17;1.90;;;1.80;;
10059;SDS011;5069;49.306;8.636;2023-07-29T00:20:21;6.97;;;2.07;;
10059;SDS011;5069;49.306;8.636;2023-07-29T00:23:22;3.50;;;2.00;;
10059;SDS011;5069;49.306;8.636;2023-07-29T00:26:24;1.97;;;1.80;;
10059;SDS011;5069;49.306;8.636;2023-07-29T00:29:27;2.23;;;1.80;;
10059;SDS011;5069;49.306;8.636;2023-07-29T00:32:29;4.03;;;2.00;;
10059;SDS011;5069;49.306;8.636;2023-07-29T00:35:30;3.13;;;1.80;;
10059;SDS011;5069;49.306;8.636;2023-07-29T00:38:34;3.47;;;2.00;;
10059;SDS011;5069;49.306;8.636;2023-07-29T00:41:35;1.73;;;1.63;;
10059;SDS011;5069;49.306;8.636;2023-07-29T00:44:37;2.00;;;1.80;;
10059;SDS011;5069;49.306;8.636;2023-07-29T00:47:39;3.07;;;2.23;;
10059;SDS011;5069;49.306;8.636;2023-07-29T00:50:41;4.07;;;2.10;;
10059;SDS011;5069;49.306;8.636;2023-07-29T00:53:43;1.90;;;1.80;;
10059;SDS011;5069;49.306;8.636;2023-07-29T00:56:45;1.83;;;1.73;;
10059;SDS011;5069;49.306;8.636;2023-07-29T00:59:46;3.37;;;1.70;;
10059;SDS011;5069;49.306;8.636;2023-07-29T01:02:47;2.17;;;1.80;;
10059;SDS011;5069;49.306;8.636;2023-07-29T01:09:03;2.90;;;2.07;;
10059;SDS011;5069;49.306;8.636;2023-07-29T01:12:47;2.83;;;1.87;;
10059;SDS011;5069;49.306;8.636;2023-07-29T01:15:57;2.80;;;2.20;;
10059;SDS011;5069;49.306;8.636;2023-07-29T01:19:04;2.60;;;2.20;;
10059;SDS011;5069;49.306;8.636;2023-07-29T01:22:08;3.30;;;2.10;;
10059;SDS011;5069;49.306;8.636;2023-07-29T01:25:11;2.50;;;2.27;;
10059;SDS011;5069;49.306;8.636;2023-07-29T01:28:13;2.73;;;1.90;;
10059;SDS011;5069;49.306;8.636;2023-07-29T01:31:21;2.20;;;2.00;;
10059;SDS011;5069;49.306;8.636;2023-07-29T01:34:29;3.33;;;2.00;;
10059;SDS011;5069;49.306;8.636;2023-07-29T01:37:36;2.23;;;1.83;;
10059;SDS011;5069;49.306;8.636;2023-07-29T01:40:39;2.33;;;1.83;;
10059;SDS011;5069;49.306;8.636;2023-07-29T01:43:43;2.47;;;2.07;;
10059;SDS011;5069;49.306;8.636;2023-07-29T01:46:46;3.93;;;1.70;;
10059;SDS011;5069;49.306;8.636;2023-07-29T01:49:48;4.37;;;2.33;;
10059;SDS011;5069;49.306;8.636;2023-07-29T01:52:49;2.10;;;1.90;;
10059;SDS011;5069;49.306;8.636;2023-07-29T01:55:51;3.37;;;1.97;;
10059;SDS011;5069;49.306;8.636;2023-07-29T01:58:53;4.40;;;1.87;;
10059;SDS011;5069;49.306;8.636;2023-07-29T02:01:54;2.83;;;1.80;;
10059;SDS011;5069;49.306;8.636;2023-07-29T02:04:56;2.40;;;1.83;;
10059;SDS011;5069;49.306;8.636;2023-07-29T02:07:57;3.63;;;2.10;;
10059;SDS011;5069;49.306;8.636;2023-07-29T02:10:59;2.30;;;2.10;;
10059;SDS011;5069;49.306;8.636;2023-07-29T02:14:00;2.23;;;2.03;;
10059;SDS011;5069;49.306;8.636;2023-07-29T02:17:02;4.00;;;1.90;;
10059;SDS011;5069;49.306;8.636;2023-07-29T02:20:04;2.67;;;1.80;;
10059;SDS011;5069;49.306;8.636;2023-07-29T02:23:06;2.87;;;2.07;;
10059;SDS011;5069;49.306;8.636;2023-07-29T02:26:08;4.43;;;2.10;;
10059;SDS011;5069;49.306;8.636;2023-07-29T02:29:09;2.30;;;2.10;;
10059;SDS011;5069;49.306;8.636;2023-07-29T02:32:11;3.67;;;2.20;;
10059;SDS011;5069;49.306;8.636;2023-07-29T02:35:12;3.40;;;2.10;;
10059;SDS011;5069;49.306;8.636;2023-07-29T02:38:14;3.37;;;2.17;;
10059;SDS011;5069;49.306;8.636;2023-07-29T02:41:15;4.17;;;1.90;;
10059;SDS011;5069;49.306;8.636;2023-07-29T02:44:17;2.20;;;1.87;;
10059;SDS011;5069;49.306;8.636;2023-07-29T02:47:20;3.27;;;1.73;;
10059;SDS011;5069;49.306;8.636;2023-07-29T02:50:22;2.43;;;2.03;;
10059;SDS011;5069;49.306;8.636;2023-07-29T02:53:23;2.20;;;1.97;;
10059;SDS011;5069;49.306;8.636;2023-07-29T02:56:25;3.03;;;1.90;;
10059;SDS011;5069;49.306;8.636;2023-07-29T02:59:27;2.23;;;1.90;;
10059;SDS011;5069;49.306;8.636;2023-07-29T03:02:28;2.43;;;1.90;;
10059;SDS011;5069;49.306;8.636;2023-07-29T03:05:30;4.03;;;1.90;;
10059;SDS011;5069;49.306;8.636;2023-07-29T03:08:33;4.90;;;2.10;;
10059;SDS011;5069;49.306;8.636;2023-07-29T03:11:34;3.80;;;2.30;;
10059;SDS011;5069;49.306;8.636;2023-07-29T03:14:36;2.87;;;1.80;;
10059;SDS011;5069;49.306;8.636;2023-07-29T03:17:37;3.63;;;1.83;;
10059;SDS011;5069;49.306;8.636;2023-07-29T03:20:39;3.17;;;1.70;;
10059;SDS011;5069;49.306;8.636;2023-07-29T03:23:41;2.93;;;1.87;;
10059;SDS011;5069;49.306;8.636;2023-07-29T03:26:43;3.73;;;1.80;;
10059;SDS011;5069;49.306;8.636;2023-07-29T03:29:47;4.93;;;1.90;;
10059;SDS011;5069;49.306;8.636;2023-07-29T03:32:49;3.30;;;1.70;;
10059;SDS011;5069;49.306;8.636;2023-07-29T03:35:51;2.30;;;1.53;;
10059;SDS011;5069;49.306;8.636;2023-07-29T03:38:53;2.93;;;1.60;;
10059;SDS011;5069;49.306;8.636;2023-07-29T03:41:55;4.70;;;1.53;;
10059;SDS011;5069;49.306;8.636;2023-07-29T03:44:56;5.37;;;1.73;;
10059;SDS011;5069;49.306;8.636;2023-07-29T03:47:58;4.83;;;1.80;;
10059;SDS011;5069;49.306;8.636;2023-07-29T03:51:00;5.87;;;2.37;;
10059;SDS011;5069;49.306;8.636;2023-07-29T03:54:01;5.43;;;2.27;;
10059;SDS011;5069;49.306;8.636;2023-07-29T03:57:03;2.20;;;1.40;;
10059;SDS011;5069;49.306;8.636;2023-07-29T04:00:05;2.83;;;1.63;;
10059;SDS011;5069;49.306;8.636;2023-07-29T04:03:15;2.83;;;1.53;;
10059;SDS011;5069;49.306;8.636;2023-07-29T04:06:17;2.03;;;1.40;;
10059;SDS011;5069;49.306;8.636;2023-07-29T04:09:19;5.43;;;1.70;;
10059;SDS011;5069;49.306;8.636;2023-07-29T04:12:20;3.97;;;1.50;;
10059;SDS011;5069;49.306;8.636;2023-07-29T04:15:22;2.83;;;1.77;;
10059;SDS011;5069;49.306;8.636;2023-07-29T04:18:24;2.20;;;1.60;;
10059;SDS011;5069;49.306;8.636;2023-07-29T04:21:26;4.53;;;1.73;;
10059;SDS011;5069;49.306;8.636;2023-07-29T04:24:27;4.20;;;1.80;;
10059;SDS011;5069;49.306;8.636;2023-07-29T04:27:29;4.03;;;1.70;;
10059;SDS011;5069;49.306;8.636;2023-07-29T04:30:30;2.73;;;1.70;;
10059;SDS011;5069;49.306;8.636;2023-07-29T04:33:32;5.30;;;1.60;;
10059;SDS011;5069;49.306;8.636;2023-07-29T04:36:37;3.67;;;1.60;;
10059;SDS011;5069;49.306;8.636;2023-07-29T04:39:39;9.53;;;2.43;;
10059;SDS011;5069;49.306;8.636;2023-07-29T04:42:41;4.50;;;2.03;;
10059;SDS011;5069;49.306;8.636;2023-07-29T04:45:43;3.20;;;1.37;;
10059;SDS011;5069;49.306;8.636;2023-07-29T04:48:45;3.73;;;1.90;;
10059;SDS011;5069;49.306;8.636;2023-07-29T04:51:46;4.47;;;2.00;;
10059;SDS011;5069;49.306;8.636;2023-07-29T04:54:48;8.70;;;2.30;;
10059;SDS011;5069;49.306;8.636;2023-07-29T04:57:49;4.80;;;2.30;;
10059;SDS011;5069;49.306;8.636;2023-07-29T05:00:51;3.10;;;2.03;;
10059;SDS011;5069;49.306;8.636;2023-07-29T05:03:52;5.23;;;2.27;;
10059;SDS011;5069;49.306;8.636;2023-07-29T05:06:54;3.23;;;2.00;;
10059;SDS011;5069;49.306;8.636;2023-07-29T05:09:55;4.17;;;1.80;;
10059;SDS011;5069;49.306;8.636;2023-07-29T05:12:57;2.80;;;1.90;;
10059;SDS011;5069;49.306;8.636;2023-07-29T05:15:58;3.20;;;1.73;;
10059;SDS011;5069;49.306;8.636;2023-07-29T05:19:00;2.97;;;1.70;;
10059;SDS011;5069;49.306;8.636;2023-07-29T05:22:01;2.73;;;1.80;;
10059;SDS011;5069;49.306;8.636;2023-07-29T05:25:03;3.47;;;1.63;;
10059;SDS011;5069;49.306;8.636;2023-07-29T05:28:05;2.63;;;1.60;;
10059;SDS011;5069;49.306;8.636;2023-07-29T05:31:06;2.43;;;1.40;;
10059;SDS011;5069;49.306;8.636;2023-07-29T05:34:08;2.07;;;1.50;;
10059;SDS011;5069;49.306;8.636;2023-07-29T05:37:10;2.57;;;1.33;;
10059;SDS011;5069;49.306;8.636;2023-07-29T05:40:11;1.93;;;1.70;;
10059;SDS011;5069;49.306;8.636;2023-07-29T05:43:14;2.37;;;1.57;;
10059;SDS011;5069;49.306;8.636;2023-07-29T05:46:16;4.17;;;1.50;;
10059;SDS011;5069;49.306;8.636;2023-07-29T05:49:17;3.20;;;1.87;;
10059;SDS011;5069;49.306;8.636;2023-07-29T05:52:19;2.67;;;1.80;;
10059;SDS011;5069;49.306;8.636;2023-07-29T05:55:20;2.17;;;1.90;;
10059;SDS011;5069;49.306;8.636;2023-07-29T05:58:22;2.43;;;1.73;;
10059;SDS011;5069;49.306;8.636;2023-07-29T06:01:24;2.27;;;1.70;;
10059;SDS011;5069;49.306;8.636;2023-07-29T06:04:27;3.00;;;1.60;;
10059;SDS011;5069;49.306;8.636;2023-07-29T06:07:29;3.67;;;1.73;;
10059;SDS011;5069;49.306;8.636;2023-07-29T06:10:31;4.73;;;1.60;;
10059;SDS011;5069;49.306;8.636;2023-07-29T06:13:33;2.13;;;1.53;;
10059;SDS011;5069;49.306;8.636;2023-07-29T06:16:34;2.17;;;1.67;;
10059;SDS011;5069;49.306;8.636;2023-07-29T06:19:36;1.70;;;1.60;;
10059;SDS011;5069;49.306;8.636;2023-07-29T06:22:39;3.27;;;1.90;;
10059;SDS011;5069;49.306;8.636;2023-07-29T06:25:40;2.93;;;2.03;;
10059;SDS011;5069;49.306;8.636;2023-07-29T06:28:42;3.20;;;2.43;;
10059;SDS011;5069;49.306;8.636;2023-07-29T06:31:43;3.63;;;2.00;;
10059;SDS011;5069;49.306;8.636;2023-07-29T06:34:45;4.43;;;2.13;;
10059;SDS011;5069;49.306;8.636;2023-07-29T06:37:46;3.47;;;2.23;;
10059;SDS011;5069;49.306;8.636;2023-07-29T06:40:48;4.53;;;2.20;;
10059;SDS011;5069;49.306;8.636;2023-07-29T06:43:50;3.30;;;1.80;;
10059;SDS011;5069;49.306;8.636;2023-07-29T06:46:51;2.97;;;2.00;;
10059;SDS011;5069;49.306;8.636;2023-07-29T06:49:53;3.53;;;1.93;;
10059;SDS011;5069;49.306;8.636;2023-07-29T06:52:55;5.07;;;2.10;;
10059;SDS011;5069;49.306;8.636;2023-07-29T06:55:56;3.37;;;2.03;;
10059;SDS011;5069;49.306;8.636;2023-07-29T06:58:58;3.87;;;2.20;;
10059;SDS011;5069;49.306;8.636;2023-07-29T07:01:59;2.83;;;2.00;;
10059;SDS011;5069;49.306;8.636;2023-07-29T07:05:01;6.60;;;2.30;;
10059;SDS011;5069;49.306;8.636;2023-07-29T07:08:03;3.80;;;2.50;;
10059;SDS011;5069;49.306;8.636;2023-07-29T07:11:04;2.80;;;2.00;;
10059;SDS011;5069;49.306;8.636;2023-07-29T07:14:06;3.33;;;2.33;;
10059;SDS011;5069;49.306;8.636;2023-07-29T07:17:07;4.67;;;2.50;;
10059;SDS011;5069;49.306;8.636;2023-07-29T07:20:13;4.80;;;2.23;;
10059;SDS011;5069;49.306;8.636;2023-07-29T07:23:14;5.87;;;2.70;;
10059;SDS011;5069;49.306;8.636;2023-07-29T07:26:16;2.60;;;2.27;;
10059;SDS011;5069;49.306;8.636;2023-07-29T07:29:18;3.40;;;2.13;;
10059;SDS011;5069;49.306;8.636;2023-07-29T07:32:19;3.73;;;2.53;;
10059;SDS011;5069;49.306;8.636;2023-07-29T07:35:21;3.97;;;1.97;;
10059;SDS011;5069;49.306;8.636;2023-07-29T07:38:22;2.37;;;2.17;;
10059;SDS011;5069;49.306;8.636;2023-07-29T07:41:24;4.10;;;2.10;;
10059;SDS011;5069;49.306;8.636;2023-07-29T07:44:25;3.77;;;2.23;;
10059;SDS011;5069;49.306;8.636;2023-07-29T07:47:27;5.93;;;2.40;;
10059;SDS011;5069;49.306;8.636;2023-07-29T07:50:29;2.93;;;2.00;;
10059;SDS011;5069;49.306;8.636;2023-07-29T07:53:31;2.70;;;2.10;;
10059;SDS011;5069;49.306;8.636;2023-07-29T07:56:32;4.57;;;2.00;;
10059;SDS011;5069;49.306;8.636;2023-07-29T07:59:34;2.23;;;1.80;;
10059;SDS011;5069;49.306;8.636;2023-07-29T08:02:35;4.77;;;1.90;;
10059;SDS011;5069;49.306;8.636;2023-07-29T08:05:37;5.37;;;2.30;;
10059;SDS011;5069;49.306;8.636;2023-07-29T08:08:38;3.23;;;2.10;;
10059;SDS011;5069;49.306;8.636;2023-07-29T08:11:40;3.73;;;1.80;;
10059;SDS011;5069;49.306;8.636;2023-07-29T08:14:41;3.43;;;1.80;;
10059;SDS011;5069;49.306;8.636;2023-07-29T08:17:43;2.10;;;1.90;;
10059;SDS011;5069;49.306;8.636;2023-07-29T08:20:51;3.63;;;2.07;;
10059;SDS011;5069;49.306;8.636;2023-07-29T08:23:55;2.47;;;1.70;;
10059;SDS011;5069;49.306;8.636;2023-07-29T08:26:56;4.20;;;1.83;;
10059;SDS011;5069;49.306;8.636;2023-07-29T08:29:58;2.00;;;1.80;;
10059;SDS011;5069;49.306;8.636;2023-07-29T08:32:59;4.70;;;2.00;;
10059;SDS011;5069;49.306;8.636;2023-07-29T08:36:01;5.80;;;2.00;;
10059;SDS011;5069;49.306;8.636;2023-07-29T08:39:04;5.33;;;1.87;;
10059;SDS011;5069;49.306;8.636;2023-07-29T08:42:07;5.10;;;1.90;;
10059;SDS011;5069;49.306;8.636;2023-07-29T08:45:11;3.93;;;2.20;;
10059;SDS011;5069;49.306;8.636;2023-07-29T08:48:13;2.30;;;1.70;;
10059;SDS011;5069;49.306;8.636;2023-07-29T08:51:20;8.53;;;1.90;;
10059;SDS011;5069;49.306;8.636;2023-07-29T08:54:23;2.93;;;1.87;;
10059;SDS011;5069;49.306;8.636;2023-07-29T08:57:25;2.53;;;2.07;;
10059;SDS011;5069;49.306;8.636;2023-07-29T09:00:27;2.37;;;1.90;;
10059;SDS011;5069;49.306;8.636;2023-07-29T09:03:29;2.60;;;1.60;;
10059;SDS011;5069;49.306;8.636;2023-07-29T09:06:31;3.33;;;1.80;;
10059;SDS011;5069;49.306;8.636;2023-07-29T09:09:33;2.83;;;2.00;;
10059;SDS011;5069;49.306;8.636;2023-07-29T09:12:34;3.93;;;1.80;;
10059;SDS011;5069;49.306;8.636;2023-07-29T09:15:36;3.53;;;1.90;;
10059;SDS011;5069;49.306;8.636;2023-07-29T09:18:38;2.23;;;1.80;;
10059;SDS011;5069;49.306;8.636;2023-07-29T09:21:40;2.50;;;1.70;;
10059;SDS011;5069;49.306;8.636;2023-07-29T09:24:42;3.57;;;1.73;;
10059;SDS011;5069;49.306;8.636;2023-07-29T09:27:44;3.00;;;1.40;;
10059;SDS011;5069;49.306;8.636;2023-07-29T09:30:46;1.70;;;1.53;;
10059;SDS011;5069;49.306;8.636;2023-07-29T09:33:48;4.03;;;1.70;;
10059;SDS011;5069;49.306;8.636;2023-07-29T09:36:50;2.17;;;1.63;;
10059;SDS011;5069;49.306;8.636;2023-07-29T09:39:52;1.43;;;1.33;;
10059;SDS011;5069;49.306;8.636;2023-07-29T09:42:54;2.10;;;1.50;;
10059;SDS011;5069;49.306;8.636;2023-07-29T09:45:59;2.73;;;1.50;;
10059;SDS011;5069;49.306;8.636;2023-07-29T09:49:06;6.83;;;1.73;;
10059;SDS011;5069;49.306;8.636;2023-07-29T09:52:09;2.23;;;1.50;;
10059;SDS011;5069;49.306;8.636;2023-07-29T09:55:13;1.87;;;1.63;;
10059;SDS011;5069;49.306;8.636;2023-07-29T09:58:19;2.67;;;1.40;;
10059;SDS011;5069;49.306;8.636;2023-07-29T10:01:28;3.00;;;1.60;;
10059;SDS011;5069;49.306;8.636;2023-07-29T10:04:29;3.63;;;1.80;;
10059;SDS011;5069;49.306;8.636;2023-07-29T10:07:32;2.93;;;1.90;;
10059;SDS011;5069;49.306;8.636;2023-07-29T10:10:35;2.23;;;1.73;;
10059;SDS011;5069;49.306;8.636;2023-07-29T10:13:37;2.03;;;1.77;;
10059;SDS011;5069;49.306;8.636;2023-07-29T10:16:40;3.37;;;1.80;;
10059;SDS011;5069;49.306;8.636;2023-07-29T10:19:43;1.90;;;1.70;;
10059;SDS011;5069;49.306;8.636;2023-07-29T10:22:47;2.93;;;1.70;;
10059;SDS011;5069;49.306;8.636;2023-07-29T10:25:50;1.80;;;1.70;;
10059;SDS011;5069;49.306;8.636;2023-07-29T10:28:59;1.87;;;1.77;;
10059;SDS011;5069;49.306;8.636;2023-07-29T10:32:06;1.57;;;1.47;;
10059;SDS011;5069;49.306;8.636;2023-07-29T10:35:09;2.43;;;1.80;;
10059;SDS011;5069;49.306;8.636;2023-07-29T10:38:12;1.93;;;1.60;;
10059;SDS011;5069;49.306;8.636;2023-07-29T10:41:14;7.80;;;1.70;;
10059;SDS011;5069;49.306;8.636;2023-07-29T10:47:45;4.40;;;1.80;;
10059;SDS011;5069;49.306;8.636;2023-07-29T10:50:47;1.90;;;1.57;;
10059;SDS011;5069;49.306;8.636;2023-07-29T10:53:48;3.77;;;1.73;;
10059;SDS011;5069;49.306;8.636;2023-07-29T10:56:53;3.40;;;2.20;;
10059;SDS011;5069;49.306;8.636;2023-07-29T10:59:59;1.93;;;1.67;;
10059;SDS011;5069;49.306;8.636;2023-07-29T11:03:02;1.63;;;1.53;;
10059;SDS011;5069;49.306;8.636;2023-07-29T11:06:06;3.10;;;1.67;;
10059;SDS011;5069;49.306;8.636;2023-07-29T11:09:38;1.67;;;1.40;;
10059;SDS011;5069;49.306;8.636;2023-07-29T11:12:48;3.97;;;1.40;;
10059;SDS011;5069;49.306;8.636;2023-07-29T11:15:55;1.40;;;1.30;;
10059;SDS011;5069;49.306;8.636;2023-07-29T11:19:00;1.60;;;1.50;;
10059;SDS011;5069;49.306;8.636;2023-07-29T11:22:02;1.47;;;1.30;;
10059;SDS011;5069;49.306;8.636;2023-07-29T11:25:04;3.67;;;1.40;;
10059;SDS011;5069;49.306;8.636;2023-07-29T11:28:07;1.67;;;1.40;;
10059;SDS011;5069;49.306;8.636;2023-07-29T11:31:09;2.97;;;1.50;;
10059;SDS011;5069;49.306;8.636;2023-07-29T11:34:11;1.77;;;1.53;;
10059;SDS011;5069;49.306;8.636;2023-07-29T11:37:16;2.50;;;1.60;;
10059;SDS011;5069;49.306;8.636;2023-07-29T11:40:18;1.92;;;1.50;;
10059;SDS011;5069;49.306;8.636;2023-07-29T11:43:21;1.37;;;1.27;;
10059;SDS011;5069;49.306;8.636;2023-07-29T11:46:23;2.90;;;1.30;;
10059;SDS011;5069;49.306;8.636;2023-07-29T11:49:25;2.60;;;1.40;;
10059;SDS011;5069;49.306;8.636;2023-07-29T11:52:27;1.60;;;1.50;;
10059;SDS011;5069;49.306;8.636;2023-07-29T11:55:29;2.20;;;1.50;;
10059;SDS011;5069;49.306;8.636;2023-07-29T11:58:31;4.05;;;1.35;;
10059;SDS011;5069;49.306;8.636;2023-07-29T12:01:32;2.87;;;1.40;;
10059;SDS011;5069;49.306;8.636;2023-07-29T12:04:34;1.73;;;1.35;;
10059;SDS011;5069;49.306;8.636;2023-07-29T12:07:40;1.40;;;1.30;;
10059;SDS011;5069;49.306;8.636;2023-07-29T12:10:43;1.60;;;1.48;;
10059;SDS011;5069;49.306;8.636;2023-07-29T12:13:45;1.60;;;1.50;;
10059;SDS011;5069;49.306;8.636;2023-07-29T12:16:48;2.00;;;1.52;;
10059;SDS011;5069;49.306;8.636;2023-07-29T12:19:53;1.50;;;1.40;;
10059;SDS011;5069;49.306;8.636;2023-07-29T12:22:56;2.00;;;1.33;;
10059;SDS011;5069;49.306;8.636;2023-07-29T12:25:59;1.38;;;1.27;;
10059;SDS011;5069;49.306;8.636;2023-07-29T12:29:10;1.50;;;1.40;;
10059;SDS011;5069;49.306;8.636;2023-07-29T12:32:12;2.55;;;1.35;;
10059;SDS011;5069;49.306;8.636;2023-07-29T12:35:15;1.90;;;1.48;;
10059;SDS011;5069;49.306;8.636;2023-07-29T12:38:20;2.03;;;1.48;;
10059;SDS011;5069;49.306;8.636;2023-07-29T12:41:23;2.65;;;1.70;;
10059;SDS011;5069;49.306;8.636;2023-07-29T12:44:24;1.70;;;1.60;;
10059;SDS011;5069;49.306;8.636;2023-07-29T12:47:27;3.45;;;1.60;;
10059;SDS011;5069;49.306;8.636;2023-07-29T12:50:29;4.10;;;1.50;;
10059;SDS011;5069;49.306;8.636;2023-07-29T12:53:30;1.60;;;1.50;;
10059;SDS011;5069;49.306;8.636;2023-07-29T12:56:32;1.90;;;1.58;;
10059;SDS011;5069;49.306;8.636;2023-07-29T12:59:34;2.92;;;1.75;;
10059;SDS011;5069;49.306;8.636;2023-07-29T13:02:35;1.45;;;1.35;;
10059;SDS011;5069;49.306;8.636;2023-07-29T13:05:37;2.78;;;1.45;;
10059;SDS011;5069;49.306;8.636;2023-07-29T13:08:38;1.65;;;1.40;;
10059;SDS011;5069;49.306;8.636;2023-07-29T13:11:40;1.75;;;1.65;;
10059;SDS011;5069;49.306;8.636;2023-07-29T13:14:41;2.45;;;1.58;;
10059;SDS011;5069;49.306;8.636;2023-07-29T13:17:43;2.35;;;1.70;;
10059;SDS011;5069;49.306;8.636;2023-07-29T13:20:44;1.95;;;1.85;;
10059;SDS011;5069;49.306;8.636;2023-07-29T13:23:46;5.85;;;1.80;;
10059;SDS011;5069;49.306;8.636;2023-07-29T13:26:47;1.60;;;1.50;;
10059;SDS011;5069;49.306;8.636;2023-07-29T13:29:48;1.70;;;1.58;;
10059;SDS011;5069;49.306;8.636;2023-07-29T13:32:50;2.35;;;1.60;;
10059;SDS011;5069;49.306;8.636;2023-07-29T13:35:52;1.60;;;1.50;;
10059;SDS011;5069;49.306;8.636;2023-07-29T13:38:53;1.60;;;1.50;;
10059;SDS011;5069;49.306;8.636;2023-07-29T13:41:55;1.70;;;1.33;;
10059;SDS011;5069;49.306;8.636;2023-07-29T13:44:56;2.67;;;1.52;;
10059;SDS011;5069;49.306;8.636;2023-07-29T13:47:57;4.00;;;1.73;;
10059;SDS011;5069;49.306;8.636;2023-07-29T13:50:59;2.17;;;1.52;;
10059;SDS011;5069;49.306;8.636;2023-07-29T13:54:01;1.67;;;1.50;;
10059;SDS011;5069;49.306;8.636;2023-07-29T13:57:02;2.38;;;1.60;;
10059;SDS011;5069;49.306;8.636;2023-07-29T14:00:04;1.92;;;1.45;;
10059;SDS011;5069;49.306;8.636;2023-07-29T14:03:11;1.58;;;1.48;;
10059;SDS011;5069;49.306;8.636;2023-07-29T14:06:13;1.60;;;1.50;;
10059;SDS011;5069;49.306;8.636;2023-07-29T14:09:14;3.92;;;1.50;;
10059;SDS011;5069;49.306;8.636;2023-07-29T14:12:16;1.50;;;1.40;;
10059;SDS011;5069;49.306;8.636;2023-07-29T14:15:17;1.50;;;1.38;;
10059;SDS011;5069;49.306;8.636;2023-07-29T14:18:19;2.25;;;1.38;;
10059;SDS011;5069;49.306;8.636;2023-07-29T14:21:21;1.65;;;1.35;;
10059;SDS011;5069;49.306;8.636;2023-07-29T14:24:22;3.17;;;1.50;;
10059;SDS011;5069;49.306;8.636;2023-07-29T14:27:24;2.67;;;1.70;;
10059;SDS011;5069;49.306;8.636;2023-07-29T14:30:25;2.45;;;1.25;;
10059;SDS011;5069;49.306;8.636;2023-07-29T14:33:27;1.60;;;1.50;;
10059;SDS011;5069;49.306;8.636;2023-07-29T14:36:29;1.80;;;1.60;;
10059;SDS011;5069;49.306;8.636;2023-07-29T14:39:30;1.63;;;1.52;;
10059;SDS011;5069;49.306;8.636;2023-07-29T14:42:31;2.00;;;1.70;;
10059;SDS011;5069;49.306;8.636;2023-07-29T14:45:36;2.17;;;1.40;;
10059;SDS011;5069;49.306;8.636;2023-07-29T14:48:38;5.30;;;1.80;;
10059;SDS011;5069;49.306;8.636;2023-07-29T14:51:39;2.55;;;1.90;;
10059;SDS011;5069;49.306;8.636;2023-07-29T14:54:40;1.50;;;1.40;;
10059;SDS011;5069;49.306;8.636;2023-07-29T14:57:42;2.58;;;1.42;;
10059;SDS011;5069;49.306;8.636;2023-07-29T15:00:43;1.90;;;1.80;;
10059;SDS011;5069;49.306;8.636;2023-07-29T15:03:45;2.00;;;1.52;;
10059;SDS011;5069;49.306;8.636;2023-07-29T15:06:47;1.58;;;1.48;;
10059;SDS011;5069;49.306;8.636;2023-07-29T15:09:48;1.73;;;1.60;;
10059;SDS011;5069;49.306;8.636;2023-07-29T15:12:50;3.00;;;1.63;;
10059;SDS011;5069;49.306;8.636;2023-07-29T15:15:51;1.85;;;1.70;;
10059;SDS011;5069;49.306;8.636;2023-07-29T15:18:53;2.30;;;1.60;;
10059;SDS011;5069;49.306;8.636;2023-07-29T15:21:54;1.73;;;1.60;;
10059;SDS011;5069;49.306;8.636;2023-07-29T15:24:56;2.58;;;1.58;;
10059;SDS011;5069;49.306;8.636;2023-07-29T15:27:57;3.28;;;1.90;;
10059;SDS011;5069;49.306;8.636;2023-07-29T15:30:59;3.03;;;1.98;;
10059;SDS011;5069;49.306;8.636;2023-07-29T15:34:01;2.67;;;1.70;;
10059;SDS011;5069;49.306;8.636;2023-07-29T15:37:02;2.03;;;1.80;;
10059;SDS011;5069;49.306;8.636;2023-07-29T15:40:04;2.00;;;1.80;;
10059;SDS011;5069;49.306;8.636;2023-07-29T15:43:07;5.00;;;1.67;;
10059;SDS011;5069;49.306;8.636;2023-07-29T15:46:09;1.88;;;1.40;;
10059;SDS011;5069;49.306;8.636;2023-07-29T15:49:10;4.03;;;1.80;;
10059;SDS011;5069;49.306;8.636;2023-07-29T15:52:12;1.58;;;1.48;;
10059;SDS011;5069;49.306;8.636;2023-07-29T15:55:15;2.65;;;1.77;;
10059;SDS011;5069;49.306;8.636;2023-07-29T15:58:17;3.22;;;1.60;;
10059;SDS011;5069;49.306;8.636;2023-07-29T16:01:18;2.28;;;1.83;;
10059;SDS011;5069;49.306;8.636;2023-07-29T16:04:20;1.77;;;1.67;;
10059;SDS011;5069;49.306;8.636;2023-07-29T16:07:21;3.25;;;1.90;;
10059;SDS011;5069;49.306;8.636;2023-07-29T16:10:23;2.38;;;1.67;;
10059;SDS011;5069;49.306;8.636;2023-07-29T16:13:24;1.80;;;1.70;;
10059;SDS011;5069;49.306;8.636;2023-07-29T16:16:27;4.15;;;1.77;;
10059;SDS011;5069;49.306;8.636;2023-07-29T16:19:29;1.70;;;1.60;;
10059;SDS011;5069;49.306;8.636;2023-07-29T16:22:31;2.65;;;1.80;;
10059;SDS011;5069;49.306;8.636;2023-07-29T16:25:32;1.90;;;1.80;;
10059;SDS011;5069;49.306;8.636;2023-07-29T16:28:34;1.73;;;1.50;;
10059;SDS011;5069;49.306;8.636;2023-07-29T16:31:35;1.88;;;1.70;;
10059;SDS011;5069;49.306;8.636;2023-07-29T16:34:37;2.25;;;1.73;;
10059;SDS011;5069;49.306;8.636;2023-07-29T16:37:39;2.17;;;1.90;;
10059;SDS011;5069;49.306;8.636;2023-07-29T16:40:41;2.25;;;1.80;;
10059;SDS011;5069;49.306;8.636;2023-07-29T16:44:02;2.95;;;1.38;;
10059;SDS011;5069;49.306;8.636;2023-07-29T16:47:04;2.15;;;1.80;;
10059;SDS011;5069;49.306;8.636;2023-07-29T16:50:06;3.83;;;1.70;;
10059;SDS011;5069;49.306;8.636;2023-07-29T16:53:11;2.28;;;1.80;;
10059;SDS011;5069;49.306;8.636;2023-07-29T16:56:12;2.50;;;1.90;;
10059;SDS011;5069;49.306;8.636;2023-07-29T16:59:14;1.95;;;1.70;;
10059;SDS011;5069;49.306;8.636;2023-07-29T17:02:15;3.17;;;1.80;;
10059;SDS011;5069;49.306;8.636;2023-07-29T17:05:17;3.50;;;2.65;;
10059;SDS011;5069;49.306;8.636;2023-07-29T17:08:18;2.22;;;2.03;;
10059;SDS011;5069;49.306;8.636;2023-07-29T17:11:20;3.17;;;2.00;;
10059;SDS011;5069;49.306;8.636;2023-07-29T17:14:21;1.80;;;1.70;;
10059;SDS011;5069;49.306;8.636;2023-07-29T17:17:23;2.22;;;2.03;;
10059;SDS011;5069;49.306;8.636;2023-07-29T17:20:25;2.63;;;2.00;;
10059;SDS011;5069;49.306;8.636;2023-07-29T17:23:26;3.03;;;1.87;;
10059;SDS011;5069;49.306;8.636;2023-07-29T17:26:30;3.73;;;2.57;;
10059;SDS011;5069;49.306;8.636;2023-07-29T17:29:32;3.17;;;1.90;;
10059;SDS011;5069;49.306;8.636;2023-07-29T17:32:33;2.60;;;2.40;;
10059;SDS011;5069;49.306;8.636;2023-07-29T17:35:35;2.80;;;2.43;;
10059;SDS011;5069;49.306;8.636;2023-07-29T17:38:36;3.83;;;2.50;;
10059;SDS011;5069;49.306;8.636;2023-07-29T17:41:38;2.53;;;1.80;;
10059;SDS011;5069;49.306;8.636;2023-07-29T17:44:39;4.23;;;1.77;;
10059;SDS011;5069;49.306;8.636;2023-07-29T17:47:41;2.40;;;2.20;;
10059;SDS011;5069;49.306;8.636;2023-07-29T17:50:43;2.63;;;1.90;;
10059;SDS011;5069;49.306;8.636;2023-07-29T17:53:44;3.83;;;1.80;;
10059;SDS011;5069;49.306;8.636;2023-07-29T17:56:46;3.03;;;2.20;;
10059;SDS011;5069;49.306;8.636;2023-07-29T17:59:47;2.65;;;1.70;;
10059;SDS011;5069;49.306;8.636;2023-07-29T18:02:49;2.17;;;1.88;;
10059;SDS011;5069;49.306;8.636;2023-07-29T18:05:51;3.92;;;1.90;;
10059;SDS011;5069;49.306;8.636;2023-07-29T18:08:52;2.92;;;1.98;;
10059;SDS011;5069;49.306;8.636;2023-07-29T18:11:54;2.42;;;2.05;;
10059;SDS011;5069;49.306;8.636;2023-07-29T18:14:56;2.88;;;1.95;;
10059;SDS011;5069;49.306;8.636;2023-07-29T18:17:57;3.80;;;2.00;;
10059;SDS011;5069;49.306;8.636;2023-07-29T18:20:59;3.35;;;1.98;;
10059;SDS011;5069;49.306;8.636;2023-07-29T18:24:00;2.13;;;1.85;;
10059;SDS011;5069;49.306;8.636;2023-07-29T18:27:02;2.13;;;1.92;;
10059;SDS011;5069;49.306;8.636;2023-07-29T18:30:03;2.90;;;1.88;;
10059;SDS011;5069;49.306;8.636;2023-07-29T18:33:05;2.70;;;2.10;;
10059;SDS011;5069;49.306;8.636;2023-07-29T18:36:09;2.25;;;2.05;;
10059;SDS011;5069;49.306;8.636;2023-07-29T18:39:10;2.35;;;2.05;;
10059;SDS011;5069;49.306;8.636;2023-07-29T18:42:12;2.15;;;2.05;;